createdAt,value
2018-04-28T00:00:21.568Z,2.90
2018-04-28T00:02:48.562Z,3.00
2018-04-28T00:05:16.284Z,3.27
2018-04-28T00:07:43.309Z,3.90
2018-04-28T00:10:10.262Z,3.50
2018-04-28T00:12:37.306Z,3.73
2018-04-28T00:15:04.388Z,4.10
2018-04-28T00:17:33.394Z,4.03
2018-04-28T00:20:00.412Z,4.10
2018-04-28T00:22:34.270Z,4.20
2018-04-28T00:25:21.842Z,4.33
2018-04-28T00:27:49.777Z,3.70
2018-04-28T00:30:51.089Z,3.70
2018-04-28T00:33:22.925Z,3.50
2018-04-28T00:36:07.506Z,3.63
2018-04-28T00:38:34.548Z,4.23
2018-04-28T00:41:01.494Z,5.13
2018-04-28T00:43:28.521Z,3.43
2018-04-28T00:45:59.496Z,4.17
2018-04-28T00:48:47.017Z,4.20
2018-04-28T00:51:24.755Z,4.30
2018-04-28T00:54:01.796Z,4.50
2018-04-28T00:56:28.752Z,4.90
2018-04-28T00:58:56.625Z,4.13
2018-04-28T01:01:38.533Z,4.00
2018-04-28T01:04:14.348Z,3.53
2018-04-28T01:06:42.217Z,4.60
2018-04-28T01:09:09.185Z,4.20
2018-04-28T01:11:36.161Z,4.20
2018-04-28T01:14:11.659Z,3.50
2018-04-28T01:16:53.422Z,3.50
2018-04-28T01:19:27.321Z,3.70
2018-04-28T01:21:54.294Z,4.30
2018-04-28T01:24:39.128Z,3.53
2018-04-28T01:27:26.665Z,3.20
2018-04-28T01:30:17.017Z,3.40
2018-04-28T01:33:01.725Z,3.43
2018-04-28T01:35:30.677Z,3.27
2018-04-28T01:38:04.654Z,2.87
2018-04-28T01:40:31.618Z,3.43
2018-04-28T01:43:28.374Z,3.10
2018-04-28T01:45:57.297Z,3.13
2018-04-28T01:48:24.290Z,3.40
2018-04-28T01:51:03.353Z,4.00
2018-04-28T01:53:31.285Z,3.63
2018-04-28T01:56:01.230Z,3.90
2018-04-28T01:58:50.834Z,3.73
2018-04-28T02:01:32.644Z,3.27
2018-04-28T02:04:03.257Z,3.03
2018-04-28T02:06:56.979Z,3.30
2018-04-28T02:09:23.938Z,2.93
2018-04-28T02:11:51.941Z,3.60
2018-04-28T02:14:26.921Z,3.93
2018-04-28T02:16:58.928Z,2.93
2018-04-28T02:20:04.161Z,3.40
2018-04-28T02:23:09.555Z,3.40
2018-04-28T02:25:45.383Z,3.73
2018-04-28T02:28:17.171Z,3.17
2018-04-28T02:30:46.975Z,3.90
2018-04-28T02:33:14.688Z,3.30
2018-04-28T02:35:42.611Z,3.20
2018-04-28T02:38:31.914Z,3.57
2018-04-28T02:41:16.765Z,3.60
2018-04-28T02:43:54.526Z,3.60
2018-04-28T02:46:39.376Z,3.50
2018-04-28T02:49:12.346Z,3.80
2018-04-28T02:52:05.173Z,3.43
2018-04-28T02:54:36.790Z,3.83
2018-04-28T02:57:16.549Z,3.57
2018-04-28T02:59:45.466Z,3.20
2018-04-28T03:02:31.153Z,3.87
2018-04-28T03:05:08.117Z,3.70
2018-04-28T03:07:46.701Z,3.93
2018-04-28T03:10:16.629Z,5.00
2018-04-28T03:12:43.602Z,3.90
2018-04-28T03:15:11.349Z,4.13
2018-04-28T03:17:38.334Z,3.43
2018-04-28T03:20:07.345Z,3.27
2018-04-28T03:22:34.330Z,3.97
2018-04-28T03:25:19.046Z,3.70
2018-04-28T03:28:04.043Z,3.47
2018-04-28T03:30:46.671Z,3.90
2018-04-28T03:33:15.645Z,3.83
2018-04-28T03:35:44.553Z,3.70
2018-04-28T03:38:12.470Z,4.30
2018-04-28T03:40:43.254Z,3.73
2018-04-28T03:43:29.641Z,4.30
2018-04-28T03:46:22.532Z,3.90
2018-04-28T03:48:50.499Z,4.17
2018-04-28T03:51:19.393Z,3.60
2018-04-28T03:53:54.404Z,4.37
2018-04-28T03:56:32.185Z,3.90
2018-04-28T03:59:11.052Z,3.33
2018-04-28T04:01:50.000Z,3.90
2018-04-28T04:04:24.608Z,4.20
2018-04-28T04:07:00.437Z,4.30
2018-04-28T04:09:30.404Z,3.80
2018-04-28T04:12:18.847Z,4.30
2018-04-28T04:15:06.417Z,4.37
2018-04-28T04:17:54.223Z,3.60
2018-04-28T04:20:26.803Z,4.00
2018-04-28T04:23:13.576Z,3.83
2018-04-28T04:26:12.258Z,4.50
2018-04-28T04:29:09.877Z,4.23
2018-04-28T04:31:38.521Z,5.47
2018-04-28T04:34:11.471Z,5.00
2018-04-28T04:36:50.491Z,3.83
2018-04-28T04:39:35.118Z,3.87
2018-04-28T04:42:31.617Z,4.20
2018-04-28T04:44:59.456Z,3.97
2018-04-28T04:47:50.221Z,3.60
2018-04-28T04:50:22.941Z,4.00
2018-04-28T04:52:54.898Z,3.40
2018-04-28T04:55:42.547Z,3.40
2018-04-28T04:58:33.256Z,3.93
2018-04-28T05:01:21.962Z,3.57
2018-04-28T05:03:56.709Z,3.70
2018-04-28T05:06:32.589Z,3.73
2018-04-28T05:09:09.637Z,4.30
2018-04-28T05:11:54.125Z,3.83
2018-04-28T05:14:33.122Z,3.93
2018-04-28T05:17:36.355Z,4.47
2018-04-28T05:20:26.205Z,3.90
2018-04-28T05:23:02.051Z,4.37
2018-04-28T05:25:43.813Z,4.60
2018-04-28T05:28:27.249Z,3.90
2018-04-28T05:31:16.046Z,4.07
2018-04-28T05:37:13.251Z,3.90
2018-04-28T05:39:53.417Z,3.57
2018-04-28T05:42:40.121Z,3.80
2018-04-28T05:45:32.624Z,4.00
2018-04-28T05:48:19.317Z,4.00
2018-04-28T05:51:09.857Z,4.13
2018-04-28T05:54:04.250Z,3.93
2018-04-28T05:56:55.061Z,3.47
2018-04-28T05:59:35.926Z,3.97
2018-04-28T06:02:19.462Z,3.30
2018-04-28T06:04:53.112Z,3.40
2018-04-28T06:07:35.042Z,3.60
2018-04-28T06:10:30.695Z,3.50
2018-04-28T06:13:09.499Z,3.60
2018-04-28T06:15:57.855Z,3.73
2018-04-28T06:18:47.634Z,3.77
2018-04-28T06:21:15.346Z,3.50
2018-04-28T06:23:42.273Z,3.47
2018-04-28T06:26:09.278Z,3.53
2018-04-28T06:28:36.319Z,3.27
2018-04-28T06:31:03.314Z,3.50
2018-04-28T06:33:30.277Z,3.90
2018-04-28T06:35:57.321Z,3.50
2018-04-28T06:38:24.366Z,3.10
2018-04-28T06:40:51.349Z,3.40
2018-04-28T06:43:18.357Z,4.40
2018-04-28T06:45:45.317Z,3.80
2018-04-28T06:48:12.282Z,3.73
2018-04-28T06:50:39.257Z,4.07
2018-04-28T06:53:06.947Z,3.40
2018-04-28T06:55:33.967Z,3.33
2018-04-28T06:58:01.678Z,4.00
2018-04-28T07:00:28.715Z,3.93
2018-04-28T07:02:55.676Z,3.63
2018-04-28T07:05:22.712Z,2.83
2018-04-28T07:07:49.699Z,3.20
2018-04-28T07:10:16.729Z,3.20
2018-04-28T07:12:43.728Z,3.30
2018-04-28T07:15:11.462Z,3.63
2018-04-28T07:17:38.493Z,3.73
2018-04-28T07:20:05.465Z,3.40
2018-04-28T07:22:32.550Z,3.70
2018-04-28T07:24:59.525Z,3.40
2018-04-28T07:27:26.554Z,3.20
2018-04-28T07:29:53.535Z,4.60
2018-04-28T07:32:20.534Z,2.93
2018-04-28T07:34:48.303Z,3.30
2018-04-28T07:37:16.008Z,3.40
2018-04-28T07:39:43.048Z,2.90
2018-04-28T07:42:10.138Z,3.13
2018-04-28T07:44:42.608Z,4.23
2018-04-28T07:47:10.810Z,3.57
2018-04-28T07:49:38.516Z,4.30
2018-04-28T07:52:06.669Z,3.13
2018-04-28T07:54:33.645Z,3.30
2018-04-28T07:57:06.340Z,3.10
2018-04-28T07:59:36.386Z,3.23
2018-04-28T08:02:13.139Z,2.87
2018-04-28T08:04:40.207Z,2.87
2018-04-28T08:07:07.800Z,2.50
2018-04-28T08:09:34.731Z,2.27
2018-04-28T08:12:02.239Z,2.80
2018-04-28T08:14:37.769Z,3.37
2018-04-28T08:17:09.820Z,2.40
2018-04-28T08:19:40.573Z,2.30
2018-04-28T08:22:10.871Z,2.70
2018-04-28T08:24:41.686Z,4.90
2018-04-28T08:27:08.725Z,2.50
2018-04-28T08:29:35.749Z,2.40
2018-04-28T08:32:02.793Z,2.10
2018-04-28T08:34:29.815Z,2.40
2018-04-28T08:36:56.807Z,2.97
2018-04-28T08:39:23.811Z,2.20
2018-04-28T08:41:50.947Z,2.73
2018-04-28T08:44:17.877Z,2.03
2018-04-28T08:46:44.846Z,2.60
2018-04-28T08:49:11.733Z,2.30
2018-04-28T08:51:38.663Z,2.70
2018-04-28T08:54:05.762Z,2.47
2018-04-28T08:56:32.739Z,2.83
2018-04-28T08:59:00.760Z,2.60
2018-04-28T09:01:36.851Z,2.77
2018-04-28T09:04:06.205Z,2.27
2018-04-28T09:06:34.022Z,2.03
2018-04-28T09:09:02.617Z,2.40
2018-04-28T09:11:31.535Z,3.67
2018-04-28T09:14:00.155Z,2.57
2018-04-28T09:16:29.754Z,3.10
2018-04-28T09:18:56.726Z,2.77
2018-04-28T09:21:23.646Z,2.10
2018-04-28T09:23:50.526Z,2.73
2018-04-28T09:26:18.302Z,3.07
2018-04-28T09:28:45.182Z,2.40
2018-04-28T09:31:12.481Z,2.47
2018-04-28T09:33:44.004Z,2.83
2018-04-28T09:36:10.870Z,2.50
2018-04-28T09:38:37.786Z,2.22
2018-04-28T09:41:04.653Z,2.30
2018-04-28T09:43:31.581Z,2.40
2018-04-28T09:45:58.457Z,1.93
2018-04-28T09:48:25.394Z,2.30
2018-04-28T09:50:52.253Z,2.10
2018-04-28T09:53:19.178Z,2.30
2018-04-28T09:55:46.051Z,2.00
2018-04-28T09:58:26.933Z,2.07
2018-04-28T10:00:54.855Z,1.97
2018-04-28T10:03:21.880Z,1.87
2018-04-28T10:05:57.005Z,2.33
2018-04-28T10:08:24.249Z,2.30
2018-04-28T10:10:54.857Z,3.87
2018-04-28T10:13:37.547Z,2.00
2018-04-28T10:16:09.561Z,2.07
2018-04-28T10:18:43.210Z,2.97
2018-04-28T10:21:11.890Z,2.37
2018-04-28T10:23:38.822Z,2.40
2018-04-28T10:26:05.770Z,2.47
2018-04-28T10:28:32.652Z,2.87
2018-04-28T10:30:59.545Z,2.43
2018-04-28T10:33:26.463Z,1.90
2018-04-28T10:36:08.070Z,2.60
2018-04-28T10:38:37.064Z,2.00
2018-04-28T10:41:04.006Z,2.30
2018-04-28T10:43:31.064Z,2.53
2018-04-28T10:45:58.400Z,2.80
2018-04-28T10:48:26.072Z,2.40
2018-04-28T10:50:54.344Z,2.87
2018-04-28T10:53:27.808Z,2.63
2018-04-28T10:55:57.059Z,2.77
2018-04-28T10:58:29.826Z,2.40
2018-04-28T11:00:58.865Z,2.60
2018-04-28T11:03:25.738Z,2.93
2018-04-28T11:05:52.597Z,2.37
2018-04-28T11:08:21.649Z,2.70
2018-04-28T11:10:48.645Z,2.67
2018-04-28T11:13:16.937Z,3.20
2018-04-28T11:15:43.886Z,2.97
2018-04-28T11:18:12.014Z,2.77
2018-04-28T11:20:39.004Z,3.63
2018-04-28T11:23:07.152Z,2.90
2018-04-28T11:25:36.542Z,2.67
2018-04-28T11:28:04.314Z,2.50
2018-04-28T11:30:31.373Z,3.50
2018-04-28T11:32:58.476Z,2.63
2018-04-28T11:35:25.450Z,3.27
2018-04-28T11:37:52.644Z,2.30
2018-04-28T11:40:28.857Z,3.10
2018-04-28T11:42:56.712Z,2.73
2018-04-28T11:45:23.642Z,2.93
2018-04-28T11:47:51.754Z,3.20
2018-04-28T11:50:20.172Z,2.67
2018-04-28T11:52:47.288Z,2.30
2018-04-28T11:55:15.063Z,2.67
2018-04-28T11:57:42.039Z,2.87
2018-04-28T12:00:09.018Z,2.50
2018-04-28T12:02:36.029Z,3.00
2018-04-28T12:05:03.770Z,3.43
2018-04-28T12:07:30.642Z,2.10
2018-04-28T12:09:57.603Z,2.90
2018-04-28T12:12:27.048Z,2.53
2018-04-28T12:14:56.237Z,3.00
2018-04-28T12:17:23.214Z,2.27
2018-04-28T12:19:50.159Z,2.30
2018-04-28T12:22:17.033Z,2.43
2018-04-28T12:24:44.025Z,2.83
2018-04-28T12:27:10.874Z,2.00
2018-04-28T12:29:39.814Z,2.90
2018-04-28T12:32:07.639Z,1.70
2018-04-28T12:34:40.255Z,2.67
2018-04-28T12:37:08.047Z,2.73
2018-04-28T12:39:34.995Z,2.60
2018-04-28T12:42:03.022Z,2.30
2018-04-28T12:44:33.191Z,3.10
2018-04-28T12:47:00.065Z,2.60
2018-04-28T12:49:31.294Z,2.33
2018-04-28T12:51:58.290Z,2.37
2018-04-28T12:54:29.460Z,2.50
2018-04-28T12:56:57.112Z,2.47
2018-04-28T12:59:23.990Z,2.30
2018-04-28T13:02:06.271Z,2.70
2018-04-28T13:04:44.372Z,2.57
2018-04-28T13:07:12.226Z,2.70
2018-04-28T13:09:41.917Z,2.73
2018-04-28T13:12:11.665Z,2.47
2018-04-28T13:14:53.235Z,2.37
2018-04-28T13:17:24.405Z,3.37
2018-04-28T13:20:01.213Z,2.30
2018-04-28T13:22:29.912Z,2.67
2018-04-28T13:25:08.152Z,2.70
2018-04-28T13:27:54.004Z,3.00
2018-04-28T13:30:29.823Z,2.67
2018-04-28T13:33:10.974Z,2.40
2018-04-28T13:35:41.050Z,2.20
2018-04-28T13:38:19.269Z,2.30
2018-04-28T13:43:37.876Z,3.33
2018-04-28T13:46:08.149Z,2.43
2018-04-28T13:48:37.134Z,2.70
2018-04-28T13:51:05.931Z,2.87
2018-04-28T13:53:34.240Z,2.30
2018-04-28T13:56:02.654Z,2.40
2018-04-28T13:58:31.872Z,2.10
2018-04-28T14:01:00.190Z,2.93
2018-04-28T14:03:28.626Z,3.23
2018-04-28T14:05:57.702Z,2.30
2018-04-28T14:08:30.334Z,2.40
2018-04-28T14:10:58.770Z,2.20
2018-04-28T14:13:27.237Z,2.67
2018-04-28T14:15:55.541Z,2.50
2018-04-28T14:18:23.881Z,1.93
2018-04-28T14:20:52.520Z,2.10
2018-04-28T14:23:21.592Z,2.40
2018-04-28T14:25:50.824Z,2.53
2018-04-28T14:28:19.602Z,1.97
2018-04-28T14:30:51.275Z,2.30
2018-04-28T14:33:22.395Z,1.63
2018-04-28T14:35:53.209Z,1.93
2018-04-28T14:38:21.916Z,1.93
2018-04-28T14:40:51.521Z,1.80
2018-04-28T14:43:25.366Z,1.87
2018-04-28T14:45:59.502Z,2.50
2018-04-28T14:48:39.768Z,2.13
2018-04-28T14:51:26.207Z,1.63
2018-04-28T14:56:48.447Z,1.77
2018-04-28T14:59:15.715Z,3.13
2018-04-28T15:01:43.832Z,4.70
2018-04-28T15:04:11.350Z,3.13
2018-04-28T15:06:41.344Z,2.70
2018-04-28T15:09:08.362Z,3.40
2018-04-28T15:11:35.496Z,2.33
2018-04-28T15:14:03.293Z,1.90
2018-04-28T15:16:30.367Z,2.23
2018-04-28T15:18:59.486Z,1.60
2018-04-28T15:21:26.366Z,2.13
2018-04-28T15:23:58.925Z,2.00
2018-04-28T15:26:27.246Z,1.73
2018-04-28T15:28:54.182Z,2.00
2018-04-28T15:31:21.457Z,2.30
2018-04-28T15:33:48.424Z,1.70
2018-04-28T15:36:16.068Z,3.43
2018-04-28T15:38:43.225Z,2.77
2018-04-28T15:41:10.333Z,3.60
2018-04-28T15:43:37.195Z,2.07
2018-04-28T15:46:04.972Z,2.20
2018-04-28T15:48:32.032Z,1.93
2018-04-28T15:50:59.736Z,1.43
2018-04-28T15:53:27.405Z,1.50
2018-04-28T15:55:54.360Z,1.73
2018-04-28T15:58:21.244Z,1.40
2018-04-28T16:00:48.135Z,1.63
2018-04-28T16:03:15.069Z,1.50
2018-04-28T16:05:42.014Z,2.13
2018-04-28T16:08:22.371Z,1.80
2018-04-28T16:11:01.680Z,2.20
2018-04-28T16:13:41.921Z,2.50
2018-04-28T16:16:18.893Z,1.90
2018-04-28T16:19:00.111Z,2.33
2018-04-28T16:21:41.825Z,2.30
2018-04-28T16:24:16.145Z,2.10
2018-04-28T16:26:58.050Z,1.97
2018-04-28T16:29:35.030Z,2.60
2018-04-28T16:34:58.831Z,1.83
2018-04-28T16:37:37.199Z,1.90
2018-04-28T16:40:17.184Z,1.77
2018-04-28T16:42:55.973Z,2.20
2018-04-28T16:45:36.011Z,1.60
2018-04-28T16:48:16.756Z,1.70
2018-04-28T16:50:58.608Z,1.70
2018-04-28T16:53:38.598Z,1.80
2018-04-28T16:56:19.793Z,2.00
2018-04-28T16:59:00.156Z,2.00
2018-04-28T17:01:40.669Z,1.80
2018-04-28T17:04:23.281Z,1.70
2018-04-28T17:07:03.106Z,2.03
2018-04-28T17:09:42.127Z,2.37
2018-04-28T17:12:23.472Z,1.83
2018-04-28T17:15:04.097Z,1.87
2018-04-28T17:17:52.827Z,2.50
2018-04-28T17:20:32.845Z,2.00
2018-04-28T17:23:12.035Z,2.17
2018-04-28T17:25:52.562Z,1.70
2018-04-28T17:28:31.591Z,1.50
2018-04-28T17:31:11.851Z,1.50
2018-04-28T17:33:52.058Z,1.50
2018-04-28T17:36:31.213Z,2.20
2018-04-28T17:39:12.865Z,2.50
2018-04-28T17:41:53.093Z,2.30
2018-04-28T17:44:33.241Z,2.07
2018-04-28T17:47:12.994Z,2.20
2018-04-28T17:49:52.980Z,2.60
2018-04-28T17:52:31.722Z,2.40
2018-04-28T17:55:13.434Z,3.10
2018-04-28T17:57:54.692Z,2.50
2018-04-28T18:00:34.283Z,2.50
2018-04-28T18:03:13.063Z,3.27
2018-04-28T18:05:49.378Z,2.60
2018-04-28T18:08:29.331Z,2.70
2018-04-28T18:11:09.181Z,2.57
2018-04-28T18:13:48.654Z,1.63
2018-04-28T18:16:29.132Z,2.00
2018-04-28T18:19:07.249Z,2.40
2018-04-28T18:21:45.658Z,2.13
2018-04-28T18:24:23.806Z,2.27
2018-04-28T18:27:03.866Z,2.10
2018-04-28T18:29:42.457Z,1.70
2018-04-28T18:32:22.081Z,3.30
2018-04-28T18:35:01.661Z,3.20
2018-04-28T18:37:42.682Z,3.07
2018-04-28T18:40:20.928Z,2.87
2018-04-28T18:43:02.674Z,3.23
2018-04-28T18:45:42.883Z,3.97
2018-04-28T18:48:22.730Z,3.10
2018-04-28T18:51:02.997Z,3.37
2018-04-28T18:53:43.009Z,6.50
2018-04-28T18:56:21.800Z,7.27
2018-04-28T18:59:02.005Z,4.77
2018-04-28T19:01:42.536Z,3.47
2018-04-28T19:04:22.553Z,3.20
2018-04-28T19:07:03.148Z,3.20
2018-04-28T19:09:42.191Z,3.13
2018-04-28T19:12:23.378Z,3.93
2018-04-28T19:15:03.322Z,2.80
2018-04-28T19:17:43.057Z,2.90
2018-04-28T19:20:22.974Z,3.13
2018-04-28T19:23:04.143Z,3.33
2018-04-28T19:25:44.728Z,3.90
2018-04-28T19:28:27.380Z,2.43
2018-04-28T19:31:06.432Z,2.80
2018-04-28T19:33:46.430Z,2.70
2018-04-28T19:36:24.656Z,2.20
2018-04-28T19:39:01.849Z,2.40
2018-04-28T19:41:41.903Z,2.37
2018-04-28T19:44:21.043Z,2.90
2018-04-28T19:46:59.970Z,3.27
2018-04-28T19:49:39.967Z,2.97
2018-04-28T19:52:20.602Z,2.60
2018-04-28T19:55:00.744Z,2.70
2018-04-28T19:57:40.787Z,3.43
2018-04-28T20:00:19.256Z,2.70
2018-04-28T20:03:00.923Z,2.70
2018-04-28T20:05:41.860Z,3.27
2018-04-28T20:08:21.797Z,2.90
2018-04-28T20:11:04.308Z,2.77
2018-04-28T20:13:43.807Z,3.90
2018-04-28T20:16:25.961Z,3.50
2018-04-28T20:19:06.113Z,3.57
2018-04-28T20:21:46.942Z,3.20
2018-04-28T20:24:35.300Z,3.60
2018-04-28T20:27:20.481Z,3.90
2018-04-28T20:30:01.420Z,4.03
2018-04-28T20:32:40.778Z,4.03
2018-04-28T20:35:20.664Z,3.33
2018-04-28T20:38:00.059Z,3.43
2018-04-28T20:40:40.660Z,3.20
2018-04-28T20:43:22.065Z,3.57
2018-04-28T20:46:02.404Z,3.77
2018-04-28T20:48:41.747Z,4.00
2018-04-28T20:51:23.213Z,3.30
2018-04-28T20:54:02.931Z,3.63
2018-04-28T20:56:43.738Z,3.73
2018-04-28T20:59:24.134Z,3.70
2018-04-28T21:02:03.638Z,4.30
2018-04-28T21:04:45.215Z,4.17
2018-04-28T21:07:24.492Z,3.40
2018-04-28T21:10:03.859Z,4.00
2018-04-28T21:12:44.556Z,3.97
2018-04-28T21:15:23.780Z,3.80
2018-04-28T21:18:04.270Z,3.80
2018-04-28T21:20:44.036Z,4.93
2018-04-28T21:23:24.159Z,5.17
2018-04-28T21:26:04.269Z,4.07
2018-04-28T21:28:45.240Z,3.77
2018-04-28T21:31:24.209Z,4.07
2018-04-28T21:34:02.264Z,3.30
2018-04-28T21:36:42.685Z,3.63
2018-04-28T21:39:22.541Z,3.73
2018-04-28T21:42:02.363Z,4.07
2018-04-28T21:44:42.276Z,3.63
2018-04-28T21:47:21.084Z,4.13
2018-04-28T21:52:43.448Z,4.90
2018-04-28T21:55:22.100Z,6.60
2018-04-28T21:58:02.664Z,6.50
2018-04-28T22:00:42.322Z,5.33
2018-04-28T22:03:23.125Z,4.77
2018-04-28T22:06:02.445Z,3.77
2018-04-28T22:08:40.842Z,3.93
2018-04-28T22:11:21.301Z,4.87
2018-04-28T22:14:01.936Z,4.03
2018-04-28T22:16:44.089Z,4.70
2018-04-28T22:19:21.967Z,4.87
2018-04-28T22:22:02.061Z,4.93
2018-04-28T22:24:39.601Z,4.47
2018-04-28T22:27:21.486Z,5.43
2018-04-28T22:30:02.609Z,8.40
2018-04-28T22:32:44.527Z,8.57
2018-04-28T22:35:24.219Z,5.90
2018-04-28T22:38:05.033Z,5.30
2018-04-28T22:40:46.199Z,5.40
2018-04-28T22:43:28.073Z,4.97
2018-04-28T22:46:08.595Z,5.40
2018-04-28T22:48:48.785Z,6.43
2018-04-28T22:51:27.412Z,7.40
2018-04-28T22:54:06.276Z,5.77
2018-04-28T22:56:43.947Z,5.87
2018-04-28T22:59:22.875Z,5.90
2018-04-28T23:02:03.201Z,5.73
2018-04-28T23:04:46.207Z,5.27
2018-04-28T23:07:27.633Z,5.50
2018-04-28T23:10:05.776Z,5.23
2018-04-28T23:12:45.543Z,5.40
2018-04-28T23:15:24.831Z,5.80
2018-04-28T23:20:45.387Z,5.60
2018-04-28T23:23:25.533Z,5.27
2018-04-28T23:26:03.813Z,5.30
2018-04-28T23:28:45.020Z,4.83
2018-04-28T23:31:26.765Z,4.67
2018-04-28T23:34:09.346Z,4.57
2018-04-28T23:39:32.260Z,4.73
2018-04-28T23:42:12.257Z,4.20
2018-04-28T23:44:52.614Z,4.33
2018-04-28T23:47:32.358Z,4.90
2018-04-28T23:50:11.116Z,4.70
2018-04-28T23:52:49.456Z,4.40
2018-04-28T23:55:25.674Z,4.57
2018-04-28T23:58:03.732Z,4.67
